Terminal Aerodrome Forecast
Issued by NWS Omaha/Valley, NE

Home | Current Version | Previous Version | Text Only | Print | Product List | Glossary Off
Versions: 1 2 3 4 5 6 7 8 9 10 11 12 13 14 15 16 17

000
FTUS43 KOAX 152326
TAFOFK
TAF
KOFK 152326Z 1600/1624 16018G27KT P6SM BKN150
     FM160300 17016G25KT P6SM BKN150 WS020/21050KT
     FM161300 22021G26KT P6SM OVC050
     FM161600 30024G32KT P6SM OVC040=

USA.gov is the U.S. government's official web portal to all federal, state and local government web resources and services.